Torino — 2BZH7 — position and weather

sailwx.info

Track history (hours):
 
Tides and Currents Weather Stations Pressure Air Temp Water Temp Dewpoint Dewpoint Depression Visibility Wind Speed Wind Dir Waves Ship Positions

Torino

Last reported at 2018-Jan-20 02:18 UTC. Time now 2018-Jan-22 00:02 UTC.
Position S 31°58' E 153°06'.

Length 200 m; draft 8.4 m.

Type: Cargo ship. MMSI: 235070707.

Date/timePositionNaut miles runAvg speedWind from/ knotsBaromVisibWave heightAir tempDewpointWater temp
2018-Jan-20 02:18S 31°58' E 153°06'919.4
2018-Jan-20 01:50S 32°07' E 153°03'619.5
2018-Jan-20 01:31S 32°13' E 153°01'1019.8
2018-Jan-20 01:00S 32°23' E 152°58'1019.8
2018-Jan-20 00:30S 32°32' E 152°56'1019.8
2018-Jan-20 00:00S 32°42' E 152°53'1419.7
2018-Jan-19 23:17S 32°55' E 152°48'1818.8
2018-Jan-19 22:18S 33°11' E 152°36'618.9
2018-Jan-19 21:58S 33°16' E 152°31'919.0
2018-Jan-19 21:30S 33°22' E 152°24'1019.0
2018-Jan-19 20:59S 33°30' E 152°17'918.7
2018-Jan-19 20:29S 33°37' E 152°10'1018.5
2018-Jan-19 19:56S 33°45' E 152°02'818.8
2018-Jan-19 19:30S 33°51' E 151°55'1019.0
2018-Jan-19 19:00S 33°57' E 151°46'1019.7
2018-Jan-19 18:30S 34°04' E 151°38'1019.6
2018-Jan-19 18:00S 34°11' E 151°30'1019.0
2018-Jan-19 17:30S 34°17' E 151°21'918.7
2018-Jan-19 17:00S 34°20' E 151°10'918.4
2018-Jan-19 16:30S 34°24' E 151°00'611.4
2018-Jan-19 16:00S 34°28' E 150°55'1 2.3
2018-Jan-19 15:25S 34°27' E 150°53'0 0.0
2018-Jan-19 14:52S 34°27' E 150°53'0 0.0
2018-Jan-19 14:25S 34°27' E 150°53'0 0.0
2018-Jan-19 13:55S 34°27' E 150°53'0 0.0
2018-Jan-19 13:28S 34°27' E 150°53'0 0.0
2018-Jan-19 12:58S 34°27' E 150°53'0 0.0
2018-Jan-19 12:25S 34°27' E 150°53'0 0.0
2018-Jan-19 11:58S 34°27' E 150°53'0 0.0
2018-Jan-19 11:28S 34°27' E 150°53'0 0.0
2018-Jan-19 10:58S 34°27' E 150°53'0 0.0
2018-Jan-19 10:28S 34°27' E 150°53'0 0.0
2018-Jan-19 09:58S 34°27' E 150°53'0 0.0
2018-Jan-19 09:28S 34°27' E 150°53'0 0.0
2018-Jan-19 08:58S 34°27' E 150°53'0 0.0
2018-Jan-19 08:28S 34°27' E 150°53'0 0.0
2018-Jan-19 07:58S 34°27' E 150°53'0 0.0
2018-Jan-19 07:28S 34°27' E 150°53'0 0.0
2018-Jan-19 06:58S 34°27' E 150°53'0 0.0
2018-Jan-19 06:28S 34°27' E 150°53'0 0.0
2018-Jan-19 05:58S 34°27' E 150°53'0 0.0
2018-Jan-19 05:28S 34°27' E 150°53'0 0.0
2018-Jan-19 04:58S 34°27' E 150°53'0 0.0
2018-Jan-19 04:28S 34°27' E 150°53'0 0.0
2018-Jan-19 03:58S 34°27' E 150°53'0 0.0
2018-Jan-19 03:25S 34°27' E 150°53'0 0.0
2018-Jan-19 02:58S 34°27' E 150°53'0 0.0
2018-Jan-19 02:25S 34°27' E 150°53'0 0.0
2018-Jan-19 00:46S 34°27' E 150°53'0 0.0
2018-Jan-19 00:28S 34°27' E 150°53'0 0.0
2018-Jan-18 23:58S 34°27' E 150°53'0 0.0
2018-Jan-18 23:28S 34°27' E 150°53'0 0.0
2018-Jan-18 22:58S 34°27' E 150°53'0 0.0
2018-Jan-18 22:25S 34°27' E 150°53'0 0.0
2018-Jan-18 21:55S 34°27' E 150°53'0 0.0
2018-Jan-18 21:28S 34°27' E 150°53'0 0.0
2018-Jan-18 20:49S 34°27' E 150°53'0 0.0
2018-Jan-18 20:30S 34°27' E 150°53'1 1.0
2018-Jan-18 20:00S 34°28' E 150°54'4 7.5
2018-Jan-18 19:29S 34°25' E 150°57'4 8.7
2018-Jan-18 19:00S 34°26' E 151°02'611.2
2018-Jan-18 18:31S 34°31' E 151°04'714.6
2018-Jan-18 18:00S 34°38' E 151°06'714.9
2018-Jan-18 17:30S 34°46' E 151°08'4 8.4
2018-Jan-18 17:00S 34°50' E 151°10'8 8.5
2018-Jan-18 16:00S 34°58' E 151°08'918.5
2018-Jan-18 15:30S 35°07' E 151°06'918.7
2018-Jan-18 15:01S 35°16' E 151°03'918.5
2018-Jan-18 14:31S 35°25' E 150°59'918.4
2018-Jan-18 14:01S 35°34' E 150°55'918.4
2018-Jan-18 13:31S 35°42' E 150°52'918.1
2018-Jan-18 13:00S 35°51' E 150°49'918.1
2018-Jan-18 12:30S 35°60' E 150°45'918.2
2018-Jan-18 12:00S 36°08' E 150°42'918.1
2018-Jan-18 11:29S 36°18' E 150°38'1618.1
2018-Jan-18 10:37S 36°32' E 150°33'217.8
2018-Jan-18 10:30S 36°35' E 150°32'917.7
2018-Jan-18 10:01S 36°43' E 150°29'2918.0
2018-Jan-18 08:25S 37°10' E 150°18'2418.1
2018-Jan-18 07:07S 37°33' E 150°08'217.9
2018-Jan-18 07:00S 37°34' E 150°07'917.8
2018-Jan-18 06:31S 37°42' E 150°02'917.8
2018-Jan-18 06:00S 37°50' E 149°56'917.9
2018-Jan-18 05:30S 37°56' E 149°48'918.3
2018-Jan-18 04:59S 38°02' E 149°38'1318.7
2018-Jan-18 04:18S 38°09' E 149°25'818.3
2018-Jan-18 03:52S 38°14' E 149°17'718.1
2018-Jan-18 03:30S 38°17' E 149°10'918.2
2018-Jan-18 03:00S 38°22' E 149°00'918.3
2018-Jan-18 02:30S 38°28' E 148°51'918.0
2018-Jan-18 02:01S 38°33' E 148°41'918.0
2018-Jan-18 01:30S 38°38' E 148°32'918.0
2018-Jan-18 01:00S 38°43' E 148°23'1717.2
2018-Jan-18 00:00S 38°51' E 148°03'117.1
2018-Jan-17 23:57S 38°51' E 148°02'  
Track history (hours):
 
Tides and Currents Weather Stations Pressure Air Temp Water Temp Dewpoint Dewpoint Depression Visibility Wind Speed Wind Dir Waves Ship Positions

Torino

Last reported at 2018-Jan-20 02:18 UTC. Time now 2018-Jan-22 00:02 UTC.
Position S 31°58' E 153°06'.

Length 200 m; draft 8.4 m.

Type: Cargo ship. MMSI: 235070707.

Date/timePositionNaut miles runAvg speedWind from/ knotsBaromVisibWave heightAir tempDewpointWater temp
2018-Jan-20 02:18S 31°58' E 153°06'919.4
2018-Jan-20 01:50S 32°07' E 153°03'619.5
2018-Jan-20 01:31S 32°13' E 153°01'1019.8
2018-Jan-20 01:00S 32°23' E 152°58'1019.8
2018-Jan-20 00:30S 32°32' E 152°56'1019.8
2018-Jan-20 00:00S 32°42' E 152°53'1419.7
2018-Jan-19 23:17S 32°55' E 152°48'1818.8
2018-Jan-19 22:18S 33°11' E 152°36'618.9
2018-Jan-19 21:58S 33°16' E 152°31'919.0
2018-Jan-19 21:30S 33°22' E 152°24'1019.0
2018-Jan-19 20:59S 33°30' E 152°17'918.7
2018-Jan-19 20:29S 33°37' E 152°10'1018.5
2018-Jan-19 19:56S 33°45' E 152°02'818.8
2018-Jan-19 19:30S 33°51' E 151°55'1019.0
2018-Jan-19 19:00S 33°57' E 151°46'1019.7
2018-Jan-19 18:30S 34°04' E 151°38'1019.6
2018-Jan-19 18:00S 34°11' E 151°30'1019.0
2018-Jan-19 17:30S 34°17' E 151°21'918.7
2018-Jan-19 17:00S 34°20' E 151°10'918.4
2018-Jan-19 16:30S 34°24' E 151°00'611.4
2018-Jan-19 16:00S 34°28' E 150°55'1 2.3
2018-Jan-19 15:25S 34°27' E 150°53'0 0.0
2018-Jan-19 14:52S 34°27' E 150°53'0 0.0
2018-Jan-19 14:25S 34°27' E 150°53'0 0.0
2018-Jan-19 13:55S 34°27' E 150°53'0 0.0
2018-Jan-19 13:28S 34°27' E 150°53'0 0.0
2018-Jan-19 12:58S 34°27' E 150°53'0 0.0
2018-Jan-19 12:25S 34°27' E 150°53'0 0.0
2018-Jan-19 11:58S 34°27' E 150°53'0 0.0
2018-Jan-19 11:28S 34°27' E 150°53'0 0.0
2018-Jan-19 10:58S 34°27' E 150°53'0 0.0
2018-Jan-19 10:28S 34°27' E 150°53'0 0.0
2018-Jan-19 09:58S 34°27' E 150°53'0 0.0
2018-Jan-19 09:28S 34°27' E 150°53'0 0.0
2018-Jan-19 08:58S 34°27' E 150°53'0 0.0
2018-Jan-19 08:28S 34°27' E 150°53'0 0.0
2018-Jan-19 07:58S 34°27' E 150°53'0 0.0
2018-Jan-19 07:28S 34°27' E 150°53'0 0.0
2018-Jan-19 06:58S 34°27' E 150°53'0 0.0
2018-Jan-19 06:28S 34°27' E 150°53'0 0.0
2018-Jan-19 05:58S 34°27' E 150°53'0 0.0
2018-Jan-19 05:28S 34°27' E 150°53'0 0.0
2018-Jan-19 04:58S 34°27' E 150°53'0 0.0
2018-Jan-19 04:28S 34°27' E 150°53'0 0.0
2018-Jan-19 03:58S 34°27' E 150°53'0 0.0
2018-Jan-19 03:25S 34°27' E 150°53'0 0.0
2018-Jan-19 02:58S 34°27' E 150°53'0 0.0
2018-Jan-19 02:25S 34°27' E 150°53'0 0.0
2018-Jan-19 00:46S 34°27' E 150°53'0 0.0
2018-Jan-19 00:28S 34°27' E 150°53'0 0.0
2018-Jan-18 23:58S 34°27' E 150°53'0 0.0
2018-Jan-18 23:28S 34°27' E 150°53'0 0.0
2018-Jan-18 22:58S 34°27' E 150°53'0 0.0
2018-Jan-18 22:25S 34°27' E 150°53'0 0.0
2018-Jan-18 21:55S 34°27' E 150°53'0 0.0
2018-Jan-18 21:28S 34°27' E 150°53'0 0.0
2018-Jan-18 20:49S 34°27' E 150°53'0 0.0
2018-Jan-18 20:30S 34°27' E 150°53'1 1.0
2018-Jan-18 20:00S 34°28' E 150°54'4 7.5
2018-Jan-18 19:29S 34°25' E 150°57'4 8.7
2018-Jan-18 19:00S 34°26' E 151°02'611.2
2018-Jan-18 18:31S 34°31' E 151°04'714.6
2018-Jan-18 18:00S 34°38' E 151°06'714.9
2018-Jan-18 17:30S 34°46' E 151°08'4 8.4
2018-Jan-18 17:00S 34°50' E 151°10'8 8.5
2018-Jan-18 16:00S 34°58' E 151°08'918.5
2018-Jan-18 15:30S 35°07' E 151°06'918.7
2018-Jan-18 15:01S 35°16' E 151°03'918.5
2018-Jan-18 14:31S 35°25' E 150°59'918.4
2018-Jan-18 14:01S 35°34' E 150°55'918.4
2018-Jan-18 13:31S 35°42' E 150°52'918.1
2018-Jan-18 13:00S 35°51' E 150°49'918.1
2018-Jan-18 12:30S 35°60' E 150°45'918.2
2018-Jan-18 12:00S 36°08' E 150°42'918.1
2018-Jan-18 11:29S 36°18' E 150°38'1618.1
2018-Jan-18 10:37S 36°32' E 150°33'217.8
2018-Jan-18 10:30S 36°35' E 150°32'917.7
2018-Jan-18 10:01S 36°43' E 150°29'2918.0
2018-Jan-18 08:25S 37°10' E 150°18'2418.1
2018-Jan-18 07:07S 37°33' E 150°08'217.9
2018-Jan-18 07:00S 37°34' E 150°07'917.8
2018-Jan-18 06:31S 37°42' E 150°02'917.8
2018-Jan-18 06:00S 37°50' E 149°56'917.9
2018-Jan-18 05:30S 37°56' E 149°48'918.3
2018-Jan-18 04:59S 38°02' E 149°38'1318.7
2018-Jan-18 04:18S 38°09' E 149°25'818.3
2018-Jan-18 03:52S 38°14' E 149°17'718.1
2018-Jan-18 03:30S 38°17' E 149°10'918.2
2018-Jan-18 03:00S 38°22' E 149°00'918.3
2018-Jan-18 02:30S 38°28' E 148°51'918.0
2018-Jan-18 02:01S 38°33' E 148°41'918.0
2018-Jan-18 01:30S 38°38' E 148°32'918.0
2018-Jan-18 01:00S 38°43' E 148°23'1717.2
2018-Jan-18 00:00S 38°51' E 148°03'117.1
2018-Jan-17 23:57S 38°51' E 148°02'  

Dump ship's entire track history